Time;durP1;ratioP1;P1;durP2;ratioP2;P2;SDS_P1;SDS_P2;PMS_P1;PMS_P2;Temp;Humidity;BMP_temperature;BMP_pressure;BME280_temperature;BME280_humidity;BME280_pressure;Samples;Min_cycle;Max_cycle;Signal;HPM_P1;HPM_P2
2021/08/19 00:01:49;;;;;;;2.03;1.93;;;19.80;99.90;;;;;;10525838;28;20675;-83
2021/08/19 00:06:51;;;;;;;2.00;1.90;;;19.70;99.90;;;;;;10520873;28;20224;-83
2021/08/19 00:11:53;;;;;;;2.03;1.93;;;19.70;99.90;;;;;;10460830;28;20584;-83
2021/08/19 00:16:56;;;;;;;2.50;2.40;;;19.70;99.90;;;;;;10458824;28;20663;-82
2021/08/19 00:21:59;;;;;;;2.07;1.97;;;19.70;99.90;;;;;;10441716;28;20220;-83
2021/08/19 00:27:01;;;;;;;2.20;2.00;;;19.70;99.90;;;;;;10441820;28;20224;-83
2021/08/19 00:32:06;;;;;;;2.20;2.07;;;19.70;99.90;;;;;;10441759;28;20295;-82
2021/08/19 00:37:08;;;;;;;1.77;1.73;;;19.70;99.90;;;;;;10459885;28;20216;-83
2021/08/19 00:42:10;;;;;;;1.90;1.80;;;19.70;99.90;;;;;;10462155;28;20193;-82
2021/08/19 00:47:14;;;;;;;2.60;1.80;;;19.60;99.90;;;;;;10481071;28;20221;-83
2021/08/19 00:52:17;;;;;;;1.90;1.80;;;19.60;99.90;;;;;;10440728;28;20287;-82
2021/08/19 00:57:20;;;;;;;2.20;2.00;;;19.50;99.90;;;;;;10456727;28;20692;-83
2021/08/19 01:02:25;;;;;;;1.90;1.70;;;19.50;99.90;;;;;;10440754;28;20201;-83
2021/08/19 01:07:27;;;;;;;1.90;1.80;;;19.40;99.90;;;;;;10422633;28;20235;-82
2021/08/19 01:12:29;;;;;;;1.90;1.80;;;19.40;99.90;;;;;;10439608;28;20190;-82
2021/08/19 01:17:32;;;;;;;2.07;1.97;;;19.40;99.90;;;;;;10438959;28;20217;-83
2021/08/19 01:22:35;;;;;;;2.27;2.17;;;19.40;99.90;;;;;;10456626;28;20217;-82
2021/08/19 01:27:38;;;;;;;2.00;1.90;;;19.40;99.90;;;;;;10423148;28;20235;-82
2021/08/19 01:32:40;;;;;;;2.00;1.90;;;19.40;99.90;;;;;;10438275;28;20208;-83
2021/08/19 01:37:46;;;;;;;2.00;1.90;;;19.40;99.90;;;;;;10423127;28;20213;-83
2021/08/19 01:42:50;;;;;;;2.70;2.00;;;19.40;99.90;;;;;;10422161;28;20197;-82
2021/08/19 01:47:52;;;;;;;2.30;2.20;;;19.40;99.90;;;;;;10456268;28;20291;-83
2021/08/19 01:52:54;;;;;;;1.90;1.80;;;19.40;99.90;;;;;;10422533;28;20708;-83
2021/08/19 01:57:58;;;;;;;2.30;2.20;;;19.50;99.90;;;;;;10421471;28;20697;-82
2021/08/19 02:03:01;;;;;;;2.10;2.00;;;19.50;99.90;;;;;;10438514;28;20217;-82
2021/08/19 02:08:03;;;;;;;2.50;2.40;;;19.50;99.90;;;;;;10443122;28;20232;-83
2021/08/19 02:13:07;;;;;;;2.70;2.60;;;19.50;99.90;;;;;;10447604;28;20185;-83
2021/08/19 02:18:09;;;;;;;2.43;2.30;;;19.50;99.90;;;;;;10430873;28;20212;-83
2021/08/19 02:23:12;;;;;;;2.53;2.43;;;19.50;99.90;;;;;;10432795;28;20204;-83
2021/08/19 02:28:17;;;;;;;2.30;2.20;;;19.50;99.90;;;;;;10431349;28;20220;-83
2021/08/19 02:33:19;;;;;;;2.63;2.40;;;19.50;99.90;;;;;;10446837;28;20224;-83
2021/08/19 02:38:22;;;;;;;2.10;2.00;;;19.50;99.90;;;;;;10447179;28;20206;-83
2021/08/19 02:43:25;;;;;;;2.30;2.20;;;19.40;99.90;;;;;;10429475;28;20355;-83
2021/08/19 02:48:27;;;;;;;2.50;2.40;;;19.40;99.90;;;;;;10446639;28;20649;-83
2021/08/19 02:53:29;;;;;;;2.53;2.33;;;19.40;99.90;;;;;;10446538;28;20189;-83
2021/08/19 02:58:33;;;;;;;2.93;2.70;;;19.40;99.90;;;;;;10430595;28;20704;-83
2021/08/19 03:03:35;;;;;;;2.27;2.17;;;19.40;99.90;;;;;;10466015;28;20197;-83
2021/08/19 03:08:37;;;;;;;2.03;1.93;;;19.40;99.90;;;;;;10446091;28;20272;-82
2021/08/19 03:13:40;;;;;;;2.33;2.23;;;19.30;99.90;;;;;;10426824;28;20198;-82
2021/08/19 03:18:43;;;;;;;2.40;2.27;;;19.30;99.90;;;;;;10425013;28;20221;-82
2021/08/19 03:23:45;;;;;;;2.23;2.13;;;19.30;99.90;;;;;;10426407;28;20205;-82
2021/08/19 03:28:49;;;;;;;2.17;2.07;;;19.30;99.90;;;;;;10442490;28;20601;-82
2021/08/19 03:33:51;;;;;;;2.03;1.93;;;19.30;99.90;;;;;;10442252;28;20615;-83
2021/08/19 03:38:53;;;;;;;2.23;2.13;;;19.30;99.90;;;;;;10426479;28;20213;-82
2021/08/19 03:43:57;;;;;;;2.90;2.10;;;19.30;99.90;;;;;;10425275;28;20250;-83
2021/08/19 03:48:59;;;;;;;2.33;2.23;;;19.20;99.90;;;;;;10441888;28;20591;-83
2021/08/19 03:54:01;;;;;;;2.80;2.30;;;19.20;99.90;;;;;;10460151;28;20193;-82
2021/08/19 03:59:05;;;;;;;2.47;2.37;;;19.20;99.90;;;;;;10442766;28;20216;-83
2021/08/19 04:04:07;;;;;;;2.40;2.30;;;19.10;99.90;;;;;;10442771;28;20288;-82
2021/08/19 04:09:09;;;;;;;2.50;2.40;;;19.10;99.90;;;;;;10460100;28;20227;-83
2021/08/19 04:14:12;;;;;;;2.47;2.37;;;19.10;99.90;;;;;;10443081;28;20201;-82
2021/08/19 04:19:14;;;;;;;2.43;2.23;;;19.10;99.90;;;;;;10427754;28;20459;-82
2021/08/19 04:24:26;;;;;;;2.80;2.63;;;19.10;99.90;;;;;;10443755;28;20209;-83
2021/08/19 04:29:33;;;;;;;3.13;2.93;;;19.00;99.90;;;;;;10425642;28;20231;-82
2021/08/19 04:34:35;;;;;;;2.80;2.70;;;19.00;99.90;;;;;;10458428;28;20222;-82
2021/08/19 04:39:37;;;;;;;2.90;2.70;;;19.00;99.90;;;;;;10423431;28;20217;-82
2021/08/19 04:44:40;;;;;;;2.83;2.63;;;19.00;99.90;;;;;;10439264;28;20203;-82
2021/08/19 04:49:42;;;;;;;3.17;2.97;;;19.00;99.90;;;;;;10438862;28;20227;-82
2021/08/19 04:54:45;;;;;;;2.40;2.30;;;19.00;99.90;;;;;;10438690;28;20277;-83
2021/08/19 04:59:48;;;;;;;3.83;2.43;;;19.00;99.90;;;;;;10438967;28;20273;-82
2021/08/19 05:04:50;;;;;;;2.60;2.40;;;19.00;99.90;;;;;;10421613;28;20554;-82
2021/08/19 05:09:52;;;;;;;2.50;2.40;;;18.90;99.90;;;;;;10438274;28;20248;-83
2021/08/19 05:14:56;;;;;;;2.50;2.30;;;19.00;99.90;;;;;;10438640;28;20192;-83
2021/08/19 05:19:58;;;;;;;2.50;2.40;;;19.00;99.90;;;;;;10438587;28;20205;-83
2021/08/19 05:25:00;;;;;;;2.17;2.07;;;19.00;99.90;;;;;;10456332;28;20255;-83
2021/08/19 05:30:04;;;;;;;2.17;2.07;;;19.10;99.90;;;;;;10421028;28;20248;-83
2021/08/19 05:35:06;;;;;;;3.90;2.47;;;19.10;99.90;;;;;;10421553;28;20197;-83
2021/08/19 05:40:10;;;;;;;2.57;2.47;;;19.20;99.90;;;;;;10419906;28;20237;-82
2021/08/19 05:45:13;;;;;;;2.37;2.27;;;19.20;99.90;;;;;;10436990;28;20284;-83
2021/08/19 05:50:15;;;;;;;2.63;2.53;;;19.30;99.90;;;;;;10437872;28;20221;-82
2021/08/19 05:55:17;;;;;;;2.37;2.17;;;19.40;99.90;;;;;;10437034;28;20735;-82
2021/08/19 06:00:22;;;;;;;2.40;2.30;;;19.40;99.90;;;;;;10420864;28;20229;-82
2021/08/19 06:05:24;;;;;;;2.77;2.57;;;19.50;99.90;;;;;;10436890;28;20287;-82
2021/08/19 06:10:26;;;;;;;2.73;2.57;;;19.50;99.90;;;;;;10437052;28;20784;-82
2021/08/19 06:15:30;;;;;;;2.93;2.67;;;19.60;99.90;;;;;;10455490;28;20276;-82
2021/08/19 06:20:32;;;;;;;2.50;2.40;;;19.60;99.90;;;;;;10455424;28;20209;-83
2021/08/19 06:25:35;;;;;;;2.17;2.07;;;19.70;99.90;;;;;;10437949;28;20268;-82
2021/08/19 06:30:39;;;;;;;2.90;2.30;;;19.80;99.90;;;;;;10437921;28;20229;-83
2021/08/19 06:35:41;;;;;;;2.70;2.50;;;19.90;99.90;;;;;;10437806;28;20240;-82
2021/08/19 06:40:43;;;;;;;2.40;2.20;;;19.90;99.90;;;;;;10437968;28;20750;-82
2021/08/19 06:45:47;;;;;;;2.43;2.23;;;20.00;99.90;;;;;;10453379;28;20292;-83
2021/08/19 06:50:49;;;;;;;2.93;2.70;;;20.10;99.90;;;;;;10435418;28;20630;-82
2021/08/19 06:55:51;;;;;;;2.43;2.33;;;20.20;99.90;;;;;;10443514;28;20661;-82
2021/08/19 07:00:54;;;;;;;2.13;2.03;;;20.30;99.90;;;;;;10426775;28;20811;-82
2021/08/19 07:05:56;;;;;;;4.13;2.00;;;20.50;99.90;;;;;;10427789;28;20301;-82
2021/08/19 07:10:58;;;;;;;2.00;1.90;;;20.60;99.90;;;;;;10443540;28;20229;-82
2021/08/19 07:16:02;;;;;;;2.40;2.20;;;20.70;99.90;;;;;;10427137;28;20668;-83
2021/08/19 07:21:04;;;;;;;2.20;2.07;;;20.90;99.90;;;;;;10443183;28;20213;-83
2021/08/19 07:26:06;;;;;;;2.10;2.00;;;21.00;99.90;;;;;;10461783;28;20185;-83
2021/08/19 07:31:10;;;;;;;2.83;2.60;;;21.20;99.90;;;;;;10461148;28;20259;-83
2021/08/19 07:36:12;;;;;;;2.10;2.00;;;21.30;99.90;;;;;;10426641;28;20219;-83
2021/08/19 07:41:14;;;;;;;2.23;2.13;;;21.50;99.90;;;;;;10442304;28;20193;-83
2021/08/19 07:46:17;;;;;;;2.03;1.90;;;21.70;99.90;;;;;;10446253;28;20227;-83
2021/08/19 07:51:20;;;;;;;2.13;2.03;;;21.70;99.90;;;;;;10446573;28;20562;-82
2021/08/19 07:56:22;;;;;;;2.47;2.37;;;21.70;99.90;;;;;;10460168;28;20209;-83
2021/08/19 08:01:25;;;;;;;2.20;2.10;;;21.70;99.90;;;;;;10461248;28;20204;-83
2021/08/19 08:06:27;;;;;;;2.50;1.93;;;21.70;99.90;;;;;;10442116;28;20278;-83
2021/08/19 08:11:30;;;;;;;2.13;2.03;;;21.70;99.90;;;;;;10476453;28;20625;-82
2021/08/19 08:16:33;;;;;;;2.77;2.57;;;21.80;99.90;;;;;;10486012;28;20221;-83
2021/08/19 08:21:36;;;;;;;2.40;2.30;;;21.90;99.90;;;;;;10460369;28;20389;-83
2021/08/19 08:26:39;;;;;;;2.80;2.60;;;22.20;99.90;;;;;;10476244;28;20220;-82
2021/08/19 08:31:42;;;;;;;2.20;2.10;;;22.30;99.90;;;;;;10456880;28;20588;-83
2021/08/19 08:36:44;;;;;;;2.57;2.47;;;22.30;99.90;;;;;;10443330;28;20217;-83
2021/08/19 08:41:47;;;;;;;2.37;2.17;;;22.40;99.90;;;;;;10476055;28;20208;-82
2021/08/19 08:46:50;;;;;;;2.53;2.33;;;22.70;99.90;;;;;;10475265;28;20221;-82
2021/08/19 08:51:56;;;;;;;3.43;2.00;;;22.90;99.90;;;;;;10442722;28;20213;-83
2021/08/19 08:56:58;;;;;;;3.00;2.07;;;23.00;99.90;;;;;;10442828;28;20234;-83
2021/08/19 09:02:02;;;;;;;2.53;2.30;;;23.00;99.90;;;;;;10440124;28;20193;-83
2021/08/19 09:07:05;;;;;;;2.50;2.30;;;23.20;99.90;;;;;;10441227;28;20754;-83
2021/08/19 09:12:09;;;;;;;2.70;2.50;;;23.30;99.90;;;;;;10457772;28;20712;-83
2021/08/19 09:17:12;;;;;;;2.87;2.67;;;23.20;99.90;;;;;;10442292;28;20267;-83
2021/08/19 09:22:15;;;;;;;2.93;2.70;;;23.00;99.90;;;;;;10470069;28;20660;-83
2021/08/19 09:27:18;;;;;;;2.87;2.67;;;22.70;99.90;;;;;;10456805;28;20266;-83
2021/08/19 09:32:22;;;;;;;2.63;2.43;;;22.70;99.90;;;;;;10437696;28;20420;-83
2021/08/19 09:37:24;;;;;;;3.00;2.80;;;22.70;99.90;;;;;;10474430;28;20212;-83
2021/08/19 09:42:35;;;;;;;2.20;2.10;;;23.00;99.90;;;;;;10454401;28;20505;-83
2021/08/19 09:47:39;;;;;;;2.30;2.20;;;23.30;99.90;;;;;;10453792;28;20684;-82
2021/08/19 09:52:42;;;;;;;2.23;2.13;;;23.50;99.90;;;;;;10455334;28;20195;-83
2021/08/19 09:57:44;;;;;;;2.43;2.33;;;23.60;99.90;;;;;;10455415;28;20212;-83
2021/08/19 10:02:47;;;;;;;1.93;1.83;;;23.80;99.90;;;;;;10437937;28;20224;-83
2021/08/19 10:07:50;;;;;;;2.37;2.20;;;24.10;99.90;;;;;;10501737;28;20216;-83
2021/08/19 10:12:53;;;;;;;2.30;2.20;;;24.30;99.90;;;;;;10452634;28;20199;-83
2021/08/19 10:17:59;;;;;;;1.70;1.60;;;24.60;99.90;;;;;;10482644;28;20216;-83
2021/08/19 10:23:03;;;;;;;1.83;1.73;;;24.70;99.70;;;;;;10510187;28;20218;-83
2021/08/19 10:28:16;;;;;;;2.00;1.90;;;24.70;99.20;;;;;;10507506;28;20215;-83
2021/08/19 10:33:45;;;;;;;1.70;1.60;;;24.70;99.90;;;;;;10472433;28;20193;-83
2021/08/19 10:38:47;;;;;;;2.20;1.90;;;24.70;98.40;;;;;;10470102;28;20704;-83
2021/08/19 10:44:04;;;;;;;1.90;1.80;;;24.80;98.30;;;;;;10471208;28;20200;-83
2021/08/19 10:49:07;;;;;;;1.70;1.60;;;24.70;98.80;;;;;;10486813;28;20222;-83
2021/08/19 10:54:34;;;;;;;2.20;2.10;;;24.80;99.40;;;;;;10485278;28;20204;-83
2021/08/19 10:59:39;;;;;;;2.27;2.17;;;24.80;98.10;;;;;;10513918;28;20212;-83
2021/08/19 11:04:43;;;;;;;2.40;2.30;;;24.80;98.80;;;;;;10524634;28;20192;-83
2021/08/19 11:09:52;;;;;;;2.20;2.10;;;24.70;96.90;;;;;;10524197;28;20212;-83
2021/08/19 11:14:57;;;;;;;2.47;2.30;;;24.50;97.30;;;;;;10471250;28;20207;-83
2021/08/19 11:20:21;;;;;;;2.20;2.10;;;24.40;99.00;;;;;;10466997;28;20606;-83
2021/08/19 11:25:23;;;;;;;2.00;1.90;;;24.30;98.90;;;;;;10476617;28;20212;-83
2021/08/19 11:30:32;;;;;;;2.23;2.13;;;24.10;99.50;;;;;;10477709;28;20216;-83
2021/08/19 11:35:37;;;;;;;2.30;2.20;;;23.80;99.90;;;;;;10454949;28;20205;-83
2021/08/19 11:40:40;;;;;;;2.43;2.23;;;23.70;99.90;;;;;;10470984;28;20227;-83
2021/08/19 11:45:42;;;;;;;2.23;2.13;;;23.50;99.90;;;;;;10455383;28;20210;-83
2021/08/19 11:50:52;;;;;;;2.20;2.10;;;23.40;99.90;;;;;;10464680;23;20221;-82
2021/08/19 11:55:55;;;;;;;2.60;2.50;;;23.30;99.80;;;;;;10423687;28;20626;-85
2021/08/19 12:01:01;;;;;;;3.63;2.87;;;23.30;99.90;;;;;;10416920;28;20224;-85
2021/08/19 12:06:09;;;;;;;2.30;2.20;;;23.30;99.90;;;;;;10438800;28;20209;-85
2021/08/19 12:11:12;;;;;;;2.40;2.30;;;23.50;99.90;;;;;;10424572;28;20715;-85
2021/08/19 12:16:21;;;;;;;2.13;2.03;;;23.70;99.90;;;;;;10405343;28;20221;-85
2021/08/19 12:21:26;;;;;;;2.10;2.00;;;23.90;99.90;;;;;;10430640;28;20210;-84
2021/08/19 12:26:30;;;;;;;2.30;2.20;;;24.10;99.90;;;;;;10415187;28;20204;-85
2021/08/19 12:31:56;;;;;;;2.20;2.10;;;24.30;99.90;;;;;;10451054;28;20303;-85
2021/08/19 12:37:11;;;;;;;2.27;2.17;;;24.40;99.90;;;;;;10398036;28;20227;-84
2021/08/19 12:42:15;;;;;;;2.63;2.53;;;24.50;99.90;;;;;;10433495;28;20196;-85
2021/08/19 12:47:32;;;;;;;2.80;2.70;;;24.50;99.90;;;;;;10423399;28;20268;-85
2021/08/19 12:52:36;;;;;;;2.80;2.70;;;24.50;99.90;;;;;;10436768;28;20299;-85
2021/08/19 12:57:40;;;;;;;2.50;2.40;;;24.50;99.90;;;;;;10432426;28;20221;-85
2021/08/19 13:02:48;;;;;;;2.00;1.90;;;24.50;99.90;;;;;;10444812;28;20691;-85
2021/08/19 13:07:55;;;;;;;2.90;2.60;;;24.50;99.90;;;;;;10437236;28;20213;-85
2021/08/19 13:12:59;;;;;;;4.30;2.60;;;24.50;99.90;;;;;;10417991;28;20338;-85
2021/08/19 13:18:01;;;;;;;2.67;2.40;;;24.50;99.90;;;;;;10421924;28;20324;-85
2021/08/19 13:23:05;;;;;;;2.83;2.50;;;24.50;99.90;;;;;;10427370;28;20584;-85
2021/08/19 13:28:08;;;;;;;2.60;2.50;;;24.50;99.90;;;;;;10429170;28;20296;-85
2021/08/19 13:33:10;;;;;;;3.97;2.50;;;24.40;99.90;;;;;;10436052;28;20344;-85
2021/08/19 13:38:13;;;;;;;2.70;2.50;;;24.20;99.90;;;;;;10454029;28;20232;-85
2021/08/19 13:43:15;;;;;;;3.07;2.97;;;24.00;99.90;;;;;;10435210;28;20689;-85
2021/08/19 13:48:18;;;;;;;2.60;2.50;;;23.80;99.90;;;;;;10434028;28;20348;-85
2021/08/19 13:53:21;;;;;;;2.60;2.40;;;23.70;99.90;;;;;;10398189;28;20626;-85
2021/08/19 13:58:23;;;;;;;2.70;2.50;;;23.60;99.90;;;;;;10429652;28;20225;-85
2021/08/19 14:03:25;;;;;;;2.23;1.97;;;23.50;99.90;;;;;;10421577;28;20228;-84
2021/08/19 14:08:29;;;;;;;2.40;2.30;;;23.40;99.90;;;;;;10435564;28;20661;-84
2021/08/19 14:13:31;;;;;;;2.60;2.40;;;23.30;99.90;;;;;;10422264;28;20240;-85
2021/08/19 14:18:34;;;;;;;2.33;2.23;;;23.30;99.90;;;;;;10458486;28;20229;-84
2021/08/19 14:23:38;;;;;;;3.00;2.80;;;23.20;99.90;;;;;;10452450;28;20204;-84
2021/08/19 14:28:41;;;;;;;4.87;2.60;;;23.20;99.90;;;;;;10418963;28;20572;-85
2021/08/19 14:33:43;;;;;;;3.10;2.90;;;23.10;99.90;;;;;;10415392;28;20610;-85
2021/08/19 14:38:48;;;;;;;2.87;2.67;;;23.00;99.90;;;;;;10410913;28;20277;-85
2021/08/19 14:43:51;;;;;;;3.00;2.80;;;23.00;99.90;;;;;;10441756;28;20271;-85
2021/08/19 14:48:53;;;;;;;2.90;2.70;;;23.00;99.90;;;;;;10452053;28;20243;-85
2021/08/19 14:54:00;;;;;;;2.70;2.60;;;23.00;99.90;;;;;;10414145;28;20201;-85
2021/08/19 14:59:02;;;;;;;2.47;2.37;;;23.00;99.90;;;;;;10412844;28;20224;-85
2021/08/19 15:04:05;;;;;;;2.83;2.63;;;23.00;99.90;;;;;;10416748;28;20602;-85
2021/08/19 15:09:12;;;;;;;3.00;2.80;;;23.10;99.90;;;;;;10421715;28;20213;-85
2021/08/19 15:14:14;;;;;;;2.47;2.37;;;23.00;99.90;;;;;;10417477;28;20617;-85
2021/08/19 15:19:22;;;;;;;3.23;2.93;;;23.00;99.90;;;;;;10424600;28;20228;-85
2021/08/19 15:24:44;;;;;;;2.90;2.70;;;22.90;99.90;;;;;;10421600;28;20611;-85
2021/08/19 15:29:47;;;;;;;3.30;2.83;;;22.80;99.90;;;;;;10449397;28;20248;-85
2021/08/19 15:34:50;;;;;;;3.10;2.90;;;22.70;99.90;;;;;;10403956;28;20198;-84
2021/08/19 15:39:56;;;;;;;2.63;2.43;;;22.60;99.90;;;;;;10407003;28;20244;-85
2021/08/19 15:45:00;;;;;;;3.00;2.80;;;22.60;99.90;;;;;;10404815;28;20198;-84
2021/08/19 15:50:03;;;;;;;2.73;2.53;;;22.60;99.90;;;;;;10453366;28;20221;-85
2021/08/19 15:55:08;;;;;;;3.40;2.60;;;22.50;99.90;;;;;;10417259;28;20196;-85
2021/08/19 16:00:11;;;;;;;2.20;2.10;;;22.60;99.90;;;;;;10408197;28;20244;-84
2021/08/19 16:05:16;;;;;;;2.53;2.30;;;22.60;99.90;;;;;;10407818;28;20206;-84
2021/08/19 16:10:19;;;;;;;2.73;2.60;;;22.70;99.90;;;;;;10421476;28;20218;-84
2021/08/19 16:15:22;;;;;;;2.37;2.23;;;22.70;99.90;;;;;;10418303;28;20212;-85
2021/08/19 16:20:24;;;;;;;2.50;2.40;;;22.80;99.90;;;;;;10419291;28;20218;-85
2021/08/19 16:25:27;;;;;;;2.40;2.20;;;22.80;99.90;;;;;;10431202;28;20277;-85
2021/08/19 16:30:31;;;;;;;2.17;2.07;;;22.80;99.90;;;;;;10419221;28;20237;-85
2021/08/19 16:35:33;;;;;;;2.73;2.53;;;22.80;99.90;;;;;;10417604;28;20209;-85
2021/08/19 16:40:37;;;;;;;2.50;2.37;;;22.80;99.90;;;;;;10416742;28;20217;-84
2021/08/19 16:46:04;;;;;;;2.60;2.43;;;22.70;99.90;;;;;;10422977;28;20251;-85
2021/08/19 16:51:21;;;;;;;2.73;2.53;;;22.70;99.90;;;;;;10420326;28;20245;-85
2021/08/19 17:03:06;;;;;;;2.47;1.97;;;22.60;99.90;;;;;;10431873;28;20190;-84
2021/08/19 17:14:31;;;;;;;2.30;2.20;;;22.50;99.90;;;;;;10312324;28;20635;-84
2021/08/19 17:20:20;;;;;;;2.40;2.30;;;22.50;99.90;;;;;;10310599;28;20225;-85
2021/08/19 17:32:18;;;;;;;2.20;2.10;;;22.40;99.90;;;;;;10383681;28;20213;-84
2021/08/19 17:37:22;;;;;;;3.47;3.27;;;22.30;99.90;;;;;;10401079;28;20228;-84
2021/08/19 17:42:24;;;;;;;3.50;3.27;;;22.30;99.90;;;;;;10425390;28;20275;-84
2021/08/19 17:47:26;;;;;;;2.63;2.43;;;22.20;99.90;;;;;;10465973;22;20232;-82
2021/08/19 17:52:30;;;;;;;3.40;2.60;;;22.20;99.90;;;;;;10505621;28;20231;-82
2021/08/19 17:57:32;;;;;;;2.10;2.00;;;22.10;99.90;;;;;;10522914;28;20737;-82
2021/08/19 18:02:34;;;;;;;2.43;2.33;;;22.10;99.90;;;;;;10488074;28;20207;-82
2021/08/19 18:07:38;;;;;;;2.30;2.10;;;22.00;99.90;;;;;;10470985;28;20224;-82
2021/08/19 18:12:41;;;;;;;2.40;2.30;;;21.80;99.90;;;;;;10456331;28;20228;-82
2021/08/19 18:17:46;;;;;;;1.70;1.60;;;21.70;99.90;;;;;;10461758;28;20241;-82
2021/08/19 18:22:49;;;;;;;2.50;2.30;;;21.60;99.90;;;;;;10458549;28;20280;-82
2021/08/19 18:27:51;;;;;;;4.00;2.73;;;21.50;99.90;;;;;;10434325;28;20220;-82
2021/08/19 18:32:54;;;;;;;3.00;2.80;;;21.40;99.90;;;;;;10471776;28;20234;-82
2021/08/19 18:37:57;;;;;;;3.83;3.50;;;21.30;99.90;;;;;;10462795;28;20267;-82
2021/08/19 18:42:59;;;;;;;4.23;2.80;;;21.30;99.90;;;;;;10481615;28;20204;-82
2021/08/19 18:48:01;;;;;;;3.40;3.10;;;21.20;99.90;;;;;;10464646;28;20354;-82
2021/08/19 18:53:05;;;;;;;2.63;2.53;;;21.20;99.90;;;;;;10497287;28;20495;-82
2021/08/19 18:58:07;;;;;;;7.57;2.70;;;21.10;99.90;;;;;;10495370;28;20220;-82
2021/08/19 19:03:09;;;;;;;3.07;2.40;;;21.10;99.90;;;;;;10490045;28;20660;-82
2021/08/19 19:08:12;;;;;;;2.60;2.40;;;21.10;99.90;;;;;;10489155;28;20288;-82
2021/08/19 19:13:14;;;;;;;2.67;2.47;;;21.10;99.90;;;;;;10470438;28;20273;-82
2021/08/19 19:18:19;;;;;;;3.10;2.90;;;21.00;99.90;;;;;;10492885;28;20227;-82
2021/08/19 19:23:23;;;;;;;2.77;2.30;;;21.00;99.90;;;;;;10504535;28;20223;-82
2021/08/19 19:28:32;;;;;;;5.43;2.70;;;20.90;99.90;;;;;;10494904;28;20227;-82
2021/08/19 19:33:39;;;;;;;2.57;2.30;;;20.90;99.90;;;;;;10448399;28;20228;-82
2021/08/19 19:38:43;;;;;;;3.30;2.97;;;20.80;99.90;;;;;;10461742;28;20216;-83
2021/08/19 19:43:53;;;;;;;2.37;2.27;;;20.80;99.90;;;;;;10465136;28;20287;-82
2021/08/19 19:48:55;;;;;;;3.23;3.03;;;20.80;99.90;;;;;;10489228;28;20232;-82
2021/08/19 19:54:01;;;;;;;2.80;2.60;;;20.80;99.90;;;;;;10458196;28;20243;-82
2021/08/19 19:59:06;;;;;;;3.20;3.00;;;20.70;99.90;;;;;;10471756;28;20248;-82
2021/08/19 20:04:08;;;;;;;2.77;2.57;;;20.70;99.90;;;;;;10485320;28;20231;-82
2021/08/19 20:09:11;;;;;;;2.90;2.70;;;20.70;99.90;;;;;;10482133;28;20212;-82
2021/08/19 20:14:14;;;;;;;2.93;2.73;;;20.70;99.90;;;;;;10472440;28;20312;-82
2021/08/19 20:19:16;;;;;;;2.37;2.20;;;20.60;99.90;;;;;;10488867;28;20240;-82
2021/08/19 20:24:19;;;;;;;2.47;2.37;;;20.60;99.90;;;;;;10472367;28;20299;-82
2021/08/19 20:29:21;;;;;;;4.80;2.80;;;20.50;99.90;;;;;;10488554;28;20230;-82
2021/08/19 20:34:23;;;;;;;4.83;2.53;;;20.50;99.90;;;;;;10494491;28;20687;-82
2021/08/19 20:39:27;;;;;;;2.80;2.60;;;20.50;99.90;;;;;;10515068;28;20228;-82
2021/08/19 20:44:29;;;;;;;2.80;2.57;;;20.50;99.90;;;;;;10511464;28;20261;-83
2021/08/19 20:49:31;;;;;;;2.97;2.77;;;20.50;99.90;;;;;;10474134;28;20235;-83
2021/08/19 20:54:35;;;;;;;2.83;2.63;;;20.40;99.90;;;;;;10471278;28;20232;-82
2021/08/19 20:59:37;;;;;;;2.93;2.63;;;20.40;99.90;;;;;;10457381;28;20240;-82
2021/08/19 21:04:39;;;;;;;5.57;2.87;;;20.40;99.90;;;;;;10456563;28;20200;-82
2021/08/19 21:09:42;;;;;;;5.20;2.97;;;20.40;99.90;;;;;;10494686;28;20662;-82
2021/08/19 21:14:45;;;;;;;3.40;2.40;;;20.30;99.90;;;;;;10468203;28;20295;-82
2021/08/19 21:19:47;;;;;;;3.40;3.00;;;20.30;99.90;;;;;;10468166;28;20292;-82
2021/08/19 21:24:50;;;;;;;2.63;2.53;;;20.30;99.90;;;;;;10456709;28;20201;-82
2021/08/19 21:29:52;;;;;;;2.70;2.20;;;20.30;99.90;;;;;;10476678;28;20577;-82
2021/08/19 21:34:55;;;;;;;3.20;3.00;;;20.30;99.90;;;;;;10470506;28;20271;-82
2021/08/19 21:39:58;;;;;;;2.70;2.50;;;20.30;99.90;;;;;;10468399;28;20231;-82
2021/08/19 21:45:00;;;;;;;2.70;2.50;;;20.30;99.90;;;;;;10497091;28;20228;-82
2021/08/19 21:50:04;;;;;;;3.40;3.20;;;20.30;99.90;;;;;;10448780;28;20239;-82
2021/08/19 21:55:08;;;;;;;3.30;3.10;;;20.30;99.90;;;;;;10475739;28;20279;-82
2021/08/19 22:00:13;;;;;;;4.10;3.70;;;20.20;99.90;;;;;;10477447;28;20227;-82
2021/08/19 22:05:15;;;;;;;4.23;3.40;;;20.20;99.90;;;;;;10484045;28;20234;-82
2021/08/19 22:10:18;;;;;;;2.87;2.70;;;20.20;99.90;;;;;;10465037;28;20229;-82
2021/08/19 22:15:20;;;;;;;3.70;3.50;;;20.20;99.90;;;;;;10460496;28;20211;-82
2021/08/19 22:20:23;;;;;;;3.47;3.17;;;20.20;99.90;;;;;;10483858;28;20299;-82
2021/08/19 22:25:26;;;;;;;3.27;2.97;;;20.20;99.90;;;;;;10472777;28;20204;-82
2021/08/19 22:30:28;;;;;;;2.77;2.57;;;20.20;99.90;;;;;;10491362;28;20220;-82
2021/08/19 22:35:30;;;;;;;4.20;3.80;;;20.20;99.90;;;;;;10466897;28;20291;-82
2021/08/19 22:40:34;;;;;;;4.23;3.83;;;20.20;99.90;;;;;;10509177;28;20222;-82
2021/08/19 22:45:36;;;;;;;3.23;3.03;;;20.20;99.90;;;;;;10502637;28;20255;-82
2021/08/19 22:50:38;;;;;;;3.23;2.33;;;20.10;99.90;;;;;;10449834;28;20588;-82
2021/08/19 22:55:42;;;;;;;5.93;2.70;;;20.10;99.90;;;;;;10478966;28;20247;-82
2021/08/19 23:00:45;;;;;;;2.57;2.37;;;20.10;99.90;;;;;;10509771;28;20216;-82
2021/08/19 23:05:47;;;;;;;2.83;2.70;;;20.00;99.90;;;;;;10490955;28;20195;-82
2021/08/19 23:10:51;;;;;;;2.90;2.70;;;20.00;99.90;;;;;;10483408;28;20662;-82
2021/08/19 23:15:53;;;;;;;2.83;2.63;;;20.00;99.90;;;;;;10491950;28;20552;-82
2021/08/19 23:20:55;;;;;;;2.67;2.50;;;20.00;99.90;;;;;;10478099;28;20216;-83
2021/08/19 23:25:58;;;;;;;2.93;2.73;;;20.00;99.90;;;;;;10470349;28;20204;-82
2021/08/19 23:31:00;;;;;;;3.00;2.70;;;19.90;99.90;;;;;;10456776;28;20822;-82
2021/08/19 23:36:02;;;;;;;3.10;2.50;;;19.90;99.90;;;;;;10491948;28;20251;-82
2021/08/19 23:41:06;;;;;;;2.80;2.60;;;19.90;99.90;;;;;;10483630;28;20693;-82
2021/08/19 23:46:08;;;;;;;2.57;2.37;;;19.90;99.90;;;;;;10458737;28;20211;-82
2021/08/19 23:51:10;;;;;;;2.13;2.03;;;19.90;99.90;;;;;;10462839;22;20241;-83
2021/08/19 23:56:13;;;;;;;2.53;2.33;;;19.90;99.90;;;;;;10378628;28;20574;-83
